createdAt,value
2017-09-10T00:00:39.808Z,16.60
2017-09-10T00:03:07.314Z,16.60
2017-09-10T00:05:34.867Z,16.60
2017-09-10T00:08:05.788Z,16.40
2017-09-10T00:10:35.968Z,16.40
2017-09-10T00:13:03.530Z,16.40
2017-09-10T00:15:31.781Z,16.60
2017-09-10T00:17:59.273Z,16.50
2017-09-10T00:20:27.681Z,16.50
2017-09-10T00:22:55.201Z,16.50
2017-09-10T00:25:22.696Z,16.60
2017-09-10T00:27:50.198Z,16.60
2017-09-10T00:30:17.714Z,16.50
2017-09-10T00:32:45.207Z,16.50
2017-09-10T00:35:12.685Z,16.50
2017-09-10T00:37:40.940Z,16.50
2017-09-10T00:40:08.440Z,16.50
2017-09-10T00:42:36.708Z,16.50
2017-09-10T00:45:04.990Z,16.50
2017-09-10T00:47:32.503Z,16.50
2017-09-10T00:49:59.981Z,16.50
2017-09-10T00:52:27.485Z,16.50
2017-09-10T00:54:54.989Z,16.50
2017-09-10T00:57:22.480Z,16.50
2017-09-10T00:59:50.849Z,16.50
2017-09-10T01:02:18.599Z,16.50
2017-09-10T01:04:46.141Z,16.50
2017-09-10T01:07:13.635Z,16.50
2017-09-10T01:09:41.126Z,16.40
2017-09-10T01:12:08.608Z,16.40
2017-09-10T01:14:36.096Z,16.40
2017-09-10T01:17:03.601Z,16.40
2017-09-10T01:19:31.097Z,16.40
2017-09-10T01:21:58.621Z,16.30
2017-09-10T01:24:26.103Z,16.30
2017-09-10T01:26:53.598Z,16.30
2017-09-10T01:29:21.852Z,16.20
2017-09-10T01:31:49.324Z,16.20
2017-09-10T01:34:16.819Z,16.30
2017-09-10T01:36:44.361Z,16.40
2017-09-10T01:39:11.983Z,16.30
2017-09-10T01:41:39.580Z,16.30
2017-09-10T01:44:07.870Z,16.40
2017-09-10T01:46:36.128Z,16.40
2017-09-10T01:49:03.601Z,16.40
2017-09-10T01:51:31.839Z,16.30
2017-09-10T01:53:59.487Z,16.30
2017-09-10T01:56:26.973Z,16.20
2017-09-10T01:58:54.456Z,16.20
2017-09-10T02:01:22.732Z,16.20
2017-09-10T02:03:50.230Z,16.20
2017-09-10T02:06:17.697Z,16.10
2017-09-10T02:08:45.401Z,16.00
2017-09-10T02:11:12.928Z,16.00
2017-09-10T02:13:40.528Z,16.00
2017-09-10T02:16:08.179Z,16.00
2017-09-10T02:18:36.432Z,16.20
2017-09-10T02:21:03.919Z,16.20
2017-09-10T02:23:31.626Z,16.20
2017-09-10T02:25:59.134Z,16.20
2017-09-10T02:28:26.604Z,16.10
2017-09-10T02:30:54.112Z,16.10
2017-09-10T02:33:21.638Z,16.10
2017-09-10T02:35:49.167Z,16.10
2017-09-10T02:38:16.650Z,16.10
2017-09-10T02:40:44.164Z,16.10
2017-09-10T02:43:11.696Z,16.00
2017-09-10T02:45:39.179Z,16.00
2017-09-10T02:48:06.658Z,16.00
2017-09-10T02:50:34.169Z,16.00
2017-09-10T02:53:01.677Z,16.00
2017-09-10T02:55:29.346Z,16.00
2017-09-10T02:57:57.282Z,16.00
2017-09-10T03:00:24.800Z,15.80
2017-09-10T03:02:52.301Z,15.80
2017-09-10T03:05:19.797Z,15.90
2017-09-10T03:07:47.397Z,15.90
2017-09-10T03:10:14.900Z,15.80
2017-09-10T03:12:42.388Z,15.80
2017-09-10T03:15:09.921Z,15.80
2017-09-10T03:17:37.448Z,15.90
2017-09-10T03:20:04.944Z,15.90
2017-09-10T03:22:32.432Z,16.00
2017-09-10T03:24:59.910Z,16.00
2017-09-10T03:27:27.500Z,16.00
2017-09-10T03:29:55.017Z,16.00
2017-09-10T03:32:22.492Z,16.00
2017-09-10T03:34:49.989Z,15.90
2017-09-10T03:37:17.476Z,15.80
2017-09-10T03:39:44.965Z,15.80
2017-09-10T03:42:12.452Z,15.80
2017-09-10T03:44:39.957Z,15.80
2017-09-10T03:47:07.457Z,15.70
2017-09-10T03:49:34.938Z,15.80
2017-09-10T03:52:02.425Z,15.70
2017-09-10T03:54:30.676Z,15.70
2017-09-10T03:56:58.156Z,15.70
2017-09-10T03:59:26.420Z,15.60
2017-09-10T04:01:54.025Z,15.60
2017-09-10T04:04:21.505Z,15.50
2017-09-10T04:06:49.155Z,15.60
2017-09-10T04:09:16.780Z,15.50
2017-09-10T04:11:44.440Z,15.60
2017-09-10T04:14:11.934Z,15.60
2017-09-10T04:16:39.447Z,15.60
2017-09-10T04:19:07.835Z,15.70
2017-09-10T04:21:35.335Z,15.60
2017-09-10T04:24:02.822Z,15.70
2017-09-10T04:26:30.422Z,15.60
2017-09-10T04:28:57.934Z,15.60
2017-09-10T04:31:25.433Z,15.60
2017-09-10T04:33:53.790Z,15.60
2017-09-10T04:36:21.273Z,15.50
2017-09-10T04:38:48.916Z,15.60
2017-09-10T04:41:16.405Z,15.60
2017-09-10T04:43:43.887Z,15.60
2017-09-10T04:46:11.504Z,15.50
2017-09-10T04:48:39.015Z,15.60
2017-09-10T04:51:06.534Z,15.60
2017-09-10T04:53:34.777Z,15.50
2017-09-10T04:56:02.276Z,15.50
2017-09-10T04:58:29.773Z,15.60
2017-09-10T05:00:57.274Z,15.60
2017-09-10T05:03:24.766Z,15.50
2017-09-10T05:05:52.268Z,15.50
2017-09-10T05:08:19.752Z,15.50
2017-09-10T05:10:48.002Z,15.50
2017-09-10T05:13:15.527Z,15.50
2017-09-10T05:15:43.015Z,15.40
2017-09-10T05:18:10.567Z,15.60
2017-09-10T05:20:38.041Z,15.60
2017-09-10T05:23:05.593Z,15.60
2017-09-10T05:25:33.112Z,15.60
2017-09-10T05:28:00.612Z,15.70
2017-09-10T05:30:28.203Z,15.70
2017-09-10T05:32:55.711Z,15.70
2017-09-10T05:35:23.204Z,15.70
2017-09-10T05:37:50.688Z,15.70
2017-09-10T05:40:18.944Z,15.70
2017-09-10T05:42:46.560Z,15.70
2017-09-10T05:45:14.070Z,15.70
2017-09-10T05:47:42.319Z,15.70
2017-09-10T05:50:09.819Z,15.70
2017-09-10T05:52:38.082Z,15.70
2017-09-10T05:55:05.646Z,15.80
2017-09-10T05:57:33.124Z,15.80
2017-09-10T06:00:00.607Z,15.70
2017-09-10T06:02:28.099Z,15.80
2017-09-10T06:04:55.569Z,15.80
2017-09-10T06:07:23.045Z,15.80
2017-09-10T06:09:51.304Z,16.00
2017-09-10T06:12:18.806Z,15.90
2017-09-10T06:14:46.286Z,16.00
2017-09-10T06:17:13.774Z,16.00
2017-09-10T06:19:41.271Z,16.00
2017-09-10T06:22:08.768Z,16.00
2017-09-10T06:24:36.270Z,15.90
2017-09-10T06:27:04.542Z,15.90
2017-09-10T06:29:32.813Z,15.90
2017-09-10T06:32:00.322Z,15.90
2017-09-10T06:34:27.854Z,16.00
2017-09-10T06:36:56.237Z,15.90
2017-09-10T06:39:24.498Z,16.00
2017-09-10T06:41:52.784Z,16.00
2017-09-10T06:44:21.082Z,16.00
2017-09-10T06:46:48.620Z,16.00
2017-09-10T06:49:16.284Z,16.00
2017-09-10T06:51:43.797Z,16.10
2017-09-10T06:54:11.287Z,16.10
2017-09-10T06:56:39.557Z,16.30
2017-09-10T06:59:07.062Z,16.30
2017-09-10T07:01:34.560Z,16.30
2017-09-10T07:04:02.074Z,16.30
2017-09-10T07:06:29.568Z,16.30
2017-09-10T07:08:57.093Z,16.30
2017-09-10T07:11:24.605Z,16.30
2017-09-10T07:13:52.097Z,16.30
2017-09-10T07:16:19.588Z,16.40
2017-09-10T07:18:47.115Z,16.50
2017-09-10T07:21:14.628Z,16.50
2017-09-10T07:23:42.119Z,16.40
2017-09-10T07:26:09.621Z,16.50
2017-09-10T07:28:37.145Z,16.60
2017-09-10T07:31:05.402Z,16.90
2017-09-10T07:33:32.902Z,16.90
2017-09-10T07:36:00.414Z,16.90
2017-09-10T07:38:27.911Z,16.90
2017-09-10T07:41:00.143Z,16.90
2017-09-10T07:43:27.652Z,16.90
2017-09-10T07:45:55.154Z,16.90
2017-09-10T07:48:22.657Z,17.10
2017-09-10T07:50:50.144Z,17.10
2017-09-10T07:53:17.713Z,17.30
2017-09-10T07:55:45.234Z,17.20
2017-09-10T07:58:12.914Z,17.20
2017-09-10T08:00:41.286Z,17.30
2017-09-10T08:03:08.994Z,17.40
2017-09-10T08:05:36.489Z,17.50
2017-09-10T08:08:04.027Z,17.70
2017-09-10T08:10:31.523Z,17.80
2017-09-10T08:12:59.057Z,18.00
2017-09-10T08:15:26.561Z,18.10
2017-09-10T08:17:54.058Z,18.30
2017-09-10T08:20:21.556Z,18.30
2017-09-10T08:22:49.820Z,18.10
2017-09-10T08:25:18.087Z,17.90
2017-09-10T08:27:46.361Z,18.00
2017-09-10T08:30:14.599Z,18.00
2017-09-10T08:32:42.101Z,18.00
2017-09-10T08:35:10.367Z,18.00
2017-09-10T08:37:37.885Z,18.00
2017-09-10T08:40:05.365Z,18.00
2017-09-10T08:42:32.858Z,17.90
2017-09-10T08:45:00.367Z,18.00
2017-09-10T08:47:27.861Z,18.00
2017-09-10T08:49:55.352Z,18.10
2017-09-10T08:52:22.860Z,18.00
2017-09-10T08:54:51.172Z,17.90
2017-09-10T08:57:18.704Z,18.00
2017-09-10T08:59:46.205Z,18.10
2017-09-10T09:02:13.755Z,18.10
2017-09-10T09:04:42.561Z,18.10
2017-09-10T09:07:10.307Z,18.00
2017-09-10T09:09:38.506Z,18.10
2017-09-10T09:12:06.052Z,18.20
2017-09-10T09:14:34.818Z,18.20
2017-09-10T09:17:02.308Z,18.40
2017-09-10T09:19:29.792Z,18.50
2017-09-10T09:21:57.458Z,18.60
2017-09-10T09:24:25.028Z,18.70
2017-09-10T09:26:52.538Z,18.70
2017-09-10T09:29:20.118Z,18.80
2017-09-10T09:31:47.629Z,18.90
2017-09-10T09:34:15.970Z,19.00
2017-09-10T09:36:44.204Z,19.00
2017-09-10T09:39:12.481Z,19.10
2017-09-10T09:41:40.756Z,19.20
2017-09-10T09:44:08.387Z,19.20
2017-09-10T09:46:35.928Z,19.40
2017-09-10T09:49:03.439Z,19.60
2017-09-10T09:51:31.045Z,19.60
2017-09-10T09:53:58.537Z,19.70
2017-09-10T09:56:26.043Z,19.90
2017-09-10T09:58:53.558Z,20.00
2017-09-10T10:01:21.836Z,20.10
2017-09-10T10:03:49.329Z,20.00
2017-09-10T10:06:16.821Z,20.10
2017-09-10T10:08:44.321Z,20.00
2017-09-10T10:11:11.828Z,20.00
2017-09-10T10:13:39.414Z,20.00
2017-09-10T10:16:06.910Z,19.80
2017-09-10T10:18:34.426Z,19.70
2017-09-10T10:21:01.957Z,19.60
2017-09-10T10:23:29.550Z,19.50
2017-09-10T10:25:57.036Z,19.20
2017-09-10T10:28:25.297Z,18.90
2017-09-10T10:30:52.951Z,18.90
2017-09-10T10:33:20.570Z,19.00
2017-09-10T10:35:48.221Z,19.10
2017-09-10T10:38:15.750Z,19.20
2017-09-10T10:40:43.246Z,20.10
2017-09-10T10:43:10.773Z,21.30
2017-09-10T10:45:38.680Z,21.30
2017-09-10T10:48:06.207Z,21.30
2017-09-10T10:50:34.476Z,23.60
2017-09-10T10:53:02.819Z,24.50
2017-09-10T10:55:30.364Z,24.50
2017-09-10T10:57:58.027Z,25.30
2017-09-10T11:00:25.565Z,26.70
2017-09-10T11:02:53.126Z,27.40
2017-09-10T11:05:20.978Z,28.00
2017-09-10T11:07:48.497Z,28.80
2017-09-10T11:10:16.082Z,30.10
2017-09-10T11:12:43.714Z,31.40
2017-09-10T11:15:11.210Z,31.40
2017-09-10T11:17:38.716Z,31.70
2017-09-10T11:20:06.275Z,32.30
2017-09-10T11:22:33.786Z,33.30
2017-09-10T11:25:01.430Z,33.40
2017-09-10T11:27:28.928Z,33.80
2017-09-10T11:29:56.475Z,33.90
2017-09-10T11:32:24.767Z,32.40
2017-09-10T11:34:52.272Z,32.40
2017-09-10T11:37:19.963Z,31.70
2017-09-10T11:39:47.626Z,31.70
2017-09-10T11:42:15.137Z,32.50
2017-09-10T11:44:42.660Z,33.60
2017-09-10T11:47:10.239Z,34.90
2017-09-10T11:49:37.873Z,35.30
2017-09-10T11:52:05.421Z,34.20
2017-09-10T11:54:33.847Z,33.50
2017-09-10T11:57:01.389Z,33.50
2017-09-10T11:59:29.155Z,32.30
2017-09-10T12:01:56.816Z,31.10
2017-09-10T12:04:24.306Z,30.20
2017-09-10T12:06:51.812Z,28.70
2017-09-10T12:09:20.079Z,28.00
2017-09-10T12:11:48.401Z,27.50
2017-09-10T12:14:16.060Z,27.50
2017-09-10T12:16:43.556Z,26.90
2017-09-10T12:19:11.052Z,26.50
2017-09-10T12:21:38.574Z,25.80
2017-09-10T12:24:06.104Z,25.20
2017-09-10T12:26:33.601Z,24.70
2017-09-10T12:29:01.098Z,24.20
2017-09-10T12:31:28.690Z,23.60
2017-09-10T12:33:56.425Z,22.80
2017-09-10T12:36:24.007Z,22.40
2017-09-10T12:38:51.546Z,22.10
2017-09-10T12:41:19.055Z,21.80
2017-09-10T12:43:46.639Z,21.60
2017-09-10T12:46:14.158Z,21.70
2017-09-10T12:48:41.639Z,21.90
2017-09-10T12:51:10.352Z,21.90
2017-09-10T12:53:38.620Z,22.70
2017-09-10T12:56:06.205Z,22.60
2017-09-10T12:58:33.748Z,23.30
2017-09-10T13:01:02.000Z,23.90
2017-09-10T13:03:29.476Z,23.90
2017-09-10T13:05:56.982Z,23.80
2017-09-10T13:08:24.482Z,23.60
2017-09-10T13:10:51.963Z,23.60
2017-09-10T13:13:19.494Z,23.80
2017-09-10T13:15:46.977Z,24.10
2017-09-10T13:18:15.241Z,24.00
2017-09-10T13:20:42.758Z,24.00
2017-09-10T13:23:10.306Z,24.00
2017-09-10T13:25:37.808Z,23.90
2017-09-10T13:28:05.322Z,23.50
2017-09-10T13:30:33.096Z,23.20
2017-09-10T13:33:00.611Z,23.00
2017-09-10T13:35:28.184Z,23.20
2017-09-10T13:37:55.741Z,23.30
2017-09-10T13:40:24.000Z,23.70
2017-09-10T13:42:51.522Z,23.60
2017-09-10T13:45:19.038Z,23.70
2017-09-10T13:47:46.518Z,23.70
2017-09-10T13:50:14.018Z,23.60
2017-09-10T13:52:41.566Z,23.60
2017-09-10T13:55:09.081Z,23.50
2017-09-10T13:57:36.582Z,23.50
2017-09-10T14:00:04.221Z,23.60
2017-09-10T14:02:31.745Z,23.70
2017-09-10T14:04:59.266Z,23.60
2017-09-10T14:07:26.752Z,23.60
2017-09-10T14:09:54.473Z,23.80
2017-09-10T14:12:21.985Z,23.90
2017-09-10T14:14:50.255Z,23.60
2017-09-10T14:17:17.756Z,23.60
2017-09-10T14:19:45.325Z,23.50
2017-09-10T14:22:13.795Z,23.40
2017-09-10T14:24:41.362Z,23.40
2017-09-10T14:27:08.910Z,23.20
2017-09-10T14:29:36.430Z,23.10
2017-09-10T14:32:04.050Z,23.00
2017-09-10T14:34:31.660Z,22.70
2017-09-10T14:36:59.192Z,22.40
2017-09-10T14:39:26.694Z,22.20
2017-09-10T14:41:54.988Z,22.00
2017-09-10T14:44:22.477Z,21.90
2017-09-10T14:46:49.973Z,21.90
2017-09-10T14:49:17.464Z,21.90
2017-09-10T14:51:45.161Z,21.80
2017-09-10T14:54:12.673Z,21.80
2017-09-10T14:56:41.093Z,21.60
2017-09-10T14:59:08.701Z,21.60
2017-09-10T15:01:36.242Z,21.60
2017-09-10T15:04:03.734Z,21.60
2017-09-10T15:06:32.000Z,21.70
2017-09-10T15:09:00.296Z,21.70
2017-09-10T15:11:27.883Z,21.70
2017-09-10T15:13:55.445Z,21.80
2017-09-10T15:16:22.962Z,21.90
2017-09-10T15:18:50.456Z,22.00
2017-09-10T15:21:17.972Z,22.00
2017-09-10T15:23:45.470Z,22.10
2017-09-10T15:26:12.995Z,22.00
2017-09-10T15:28:40.495Z,22.10
2017-09-10T15:31:08.038Z,22.20
2017-09-10T15:33:35.615Z,22.20
2017-09-10T15:36:03.126Z,22.20
2017-09-10T15:38:30.713Z,22.20
2017-09-10T15:40:58.216Z,22.30
2017-09-10T15:43:25.711Z,22.30
2017-09-10T15:45:54.017Z,22.30
2017-09-10T15:48:21.532Z,22.30
2017-09-10T15:50:49.031Z,22.40
2017-09-10T15:53:16.549Z,22.40
2017-09-10T15:55:44.041Z,22.40
2017-09-10T15:58:12.320Z,22.40
2017-09-10T16:00:40.897Z,22.40
2017-09-10T16:03:08.443Z,22.40
2017-09-10T16:05:36.705Z,22.30
2017-09-10T16:08:04.187Z,22.30
2017-09-10T16:10:32.569Z,22.00
2017-09-10T16:13:01.049Z,21.90
2017-09-10T16:15:28.725Z,21.90
2017-09-10T16:17:56.416Z,21.90
2017-09-10T16:20:24.037Z,21.90
2017-09-10T16:22:51.565Z,21.90
2017-09-10T16:25:19.079Z,21.90
2017-09-10T16:27:46.810Z,21.70
2017-09-10T16:30:14.354Z,21.60
2017-09-10T16:32:41.890Z,21.50
2017-09-10T16:35:09.398Z,21.40
2017-09-10T16:37:36.967Z,21.50
2017-09-10T16:40:05.230Z,21.40
2017-09-10T16:42:33.496Z,21.30
2017-09-10T16:45:01.000Z,21.30
2017-09-10T16:47:28.514Z,21.20
2017-09-10T16:49:56.021Z,21.20
2017-09-10T16:52:23.548Z,21.10
2017-09-10T16:54:51.119Z,21.00
2017-09-10T16:57:18.656Z,21.00
2017-09-10T16:59:46.165Z,20.80
2017-09-10T17:02:13.767Z,20.80
2017-09-10T17:04:41.299Z,20.70
2017-09-10T17:07:08.801Z,20.60
2017-09-10T17:09:37.301Z,20.50
2017-09-10T17:12:04.850Z,20.50
2017-09-10T17:14:33.176Z,20.40
2017-09-10T17:17:00.681Z,20.40
2017-09-10T17:19:28.182Z,20.40
2017-09-10T17:21:55.697Z,20.40
2017-09-10T17:24:23.962Z,20.50
2017-09-10T17:26:51.481Z,20.40
2017-09-10T17:29:18.967Z,20.40
2017-09-10T17:31:46.670Z,20.40
2017-09-10T17:34:14.169Z,20.30
2017-09-10T17:36:41.798Z,20.40
2017-09-10T17:39:09.453Z,20.30
2017-09-10T17:41:37.712Z,20.20
2017-09-10T17:44:05.321Z,20.10
2017-09-10T17:46:32.950Z,20.10
2017-09-10T17:49:01.255Z,20.00
2017-09-10T17:51:28.896Z,20.00
2017-09-10T17:53:56.401Z,20.00
2017-09-10T17:56:23.920Z,19.80
2017-09-10T17:58:51.477Z,19.60
2017-09-10T18:01:18.978Z,19.50
2017-09-10T18:03:46.541Z,19.60
2017-09-10T18:06:14.090Z,19.50
2017-09-10T18:08:41.718Z,19.60
2017-09-10T18:11:10.039Z,19.50
2017-09-10T18:13:37.685Z,19.50
2017-09-10T18:16:05.500Z,19.50
2017-09-10T18:18:33.822Z,19.30
2017-09-10T18:21:01.624Z,19.20
2017-09-10T18:23:29.177Z,19.30
2017-09-10T18:25:56.889Z,19.20
2017-09-10T18:28:24.399Z,19.10
2017-09-10T18:30:51.916Z,19.10
2017-09-10T18:33:19.476Z,19.00
2017-09-10T18:35:46.997Z,19.00
2017-09-10T18:38:14.511Z,19.00
2017-09-10T18:40:42.039Z,19.00
2017-09-10T18:43:09.539Z,19.10
2017-09-10T18:45:37.076Z,18.90
2017-09-10T18:48:04.658Z,18.80
2017-09-10T18:50:32.179Z,18.90
2017-09-10T18:52:59.758Z,18.80
2017-09-10T18:55:27.285Z,18.60
2017-09-10T18:57:54.805Z,18.60
2017-09-10T19:00:22.351Z,18.60
2017-09-10T19:02:49.913Z,18.50
2017-09-10T19:05:17.439Z,18.50
2017-09-10T19:07:44.941Z,18.50
2017-09-10T19:10:12.565Z,18.50
2017-09-10T19:12:40.051Z,18.60
2017-09-10T19:15:07.578Z,18.50
2017-09-10T19:17:35.875Z,18.30
2017-09-10T19:20:04.874Z,18.30
2017-09-10T19:22:32.422Z,18.20
2017-09-10T19:25:00.035Z,18.20
2017-09-10T19:27:27.527Z,18.10
2017-09-10T19:29:55.827Z,17.90
2017-09-10T19:32:23.324Z,17.90
2017-09-10T19:34:53.274Z,17.80
2017-09-10T19:37:20.809Z,17.70
2017-09-10T19:39:48.394Z,17.60
2017-09-10T19:42:16.947Z,17.60
2017-09-10T19:44:44.877Z,17.60
2017-09-10T19:47:12.568Z,17.60
2017-09-10T19:49:41.500Z,17.50
2017-09-10T19:52:09.178Z,17.50
2017-09-10T19:54:36.733Z,17.50
2017-09-10T19:57:04.983Z,17.40
2017-09-10T19:59:32.531Z,17.30
2017-09-10T20:02:06.937Z,17.30
2017-09-10T20:04:34.481Z,17.30
2017-09-10T20:07:02.074Z,17.40
2017-09-10T20:09:29.581Z,17.30
2017-09-10T20:11:57.091Z,17.30
2017-09-10T20:14:25.531Z,17.30
2017-09-10T20:16:53.216Z,17.30
2017-09-10T20:19:20.855Z,17.20
2017-09-10T20:21:48.406Z,17.20
2017-09-10T20:24:16.698Z,17.00
2017-09-10T20:26:44.214Z,17.00
2017-09-10T20:29:11.732Z,17.00
2017-09-10T20:31:39.250Z,17.00
2017-09-10T20:34:06.895Z,17.10
2017-09-10T20:36:34.416Z,17.10
2017-09-10T20:39:01.915Z,17.10
2017-09-10T20:41:29.424Z,17.00
2017-09-10T20:43:56.938Z,17.00
2017-09-10T20:46:24.449Z,17.10
2017-09-10T20:48:51.998Z,17.20
2017-09-10T20:51:19.496Z,17.30
2017-09-10T20:53:47.001Z,17.20
2017-09-10T20:56:14.602Z,17.10
2017-09-10T20:58:42.161Z,17.00
2017-09-10T21:01:10.424Z,17.00
2017-09-10T21:03:38.713Z,17.00
2017-09-10T21:06:06.979Z,17.00
2017-09-10T21:08:34.493Z,17.00
2017-09-10T21:11:02.089Z,17.00
2017-09-10T21:13:30.474Z,17.00
2017-09-10T21:15:57.973Z,17.00
2017-09-10T21:18:25.477Z,16.90
2017-09-10T21:20:53.106Z,16.90
2017-09-10T21:23:20.619Z,17.00
2017-09-10T21:25:48.887Z,17.00
2017-09-10T21:28:17.149Z,17.00
2017-09-10T21:30:44.639Z,17.00
2017-09-10T21:33:12.140Z,17.10
2017-09-10T21:35:40.066Z,17.00
2017-09-10T21:38:07.670Z,16.90
2017-09-10T21:40:35.205Z,17.00
2017-09-10T21:43:02.719Z,17.00
2017-09-10T21:45:30.197Z,16.90
2017-09-10T21:47:58.460Z,16.60
2017-09-10T21:50:25.968Z,16.60
2017-09-10T21:52:53.455Z,16.50
2017-09-10T21:55:21.525Z,16.40
2017-09-10T21:57:50.007Z,16.40
2017-09-10T22:00:18.443Z,16.50
2017-09-10T22:02:45.926Z,16.40
2017-09-10T22:05:13.410Z,16.40
2017-09-10T22:07:40.939Z,16.40
2017-09-10T22:10:08.436Z,16.40
2017-09-10T22:12:35.936Z,16.50
2017-09-10T22:15:03.454Z,16.50
2017-09-10T22:17:30.973Z,16.60
2017-09-10T22:19:58.482Z,16.50
2017-09-10T22:22:26.762Z,16.40
2017-09-10T22:24:55.036Z,16.40
2017-09-10T22:27:23.303Z,16.20
2017-09-10T22:29:50.779Z,16.20
2017-09-10T22:32:19.051Z,16.00
2017-09-10T22:34:46.549Z,16.00
2017-09-10T22:37:14.069Z,16.00
2017-09-10T22:39:41.549Z,15.90
2017-09-10T22:42:09.047Z,16.00
2017-09-10T22:44:36.666Z,16.00
2017-09-10T22:47:04.159Z,16.10
2017-09-10T22:49:31.663Z,16.00
2017-09-10T22:51:59.921Z,16.10
2017-09-10T22:54:27.420Z,16.00
2017-09-10T22:56:55.706Z,16.00
2017-09-10T22:59:23.200Z,16.00
2017-09-10T23:01:50.677Z,16.00
2017-09-10T23:04:18.160Z,16.00
2017-09-10T23:06:45.648Z,15.90
2017-09-10T23:09:13.168Z,15.90
2017-09-10T23:11:41.429Z,15.90
2017-09-10T23:14:08.955Z,15.90
2017-09-10T23:16:36.445Z,15.80
2017-09-10T23:19:04.054Z,15.60
2017-09-10T23:21:31.556Z,15.60
2017-09-10T23:23:59.052Z,15.50
2017-09-10T23:26:26.540Z,15.40
2017-09-10T23:28:54.059Z,15.30
2017-09-10T23:31:22.335Z,15.30
2017-09-10T23:33:50.624Z,15.30
2017-09-10T23:36:18.117Z,15.30
2017-09-10T23:38:45.612Z,15.30
2017-09-10T23:41:13.107Z,15.20
2017-09-10T23:43:40.592Z,15.10
2017-09-10T23:46:08.118Z,15.10
2017-09-10T23:48:35.643Z,15.10
2017-09-10T23:51:03.168Z,15.10
2017-09-10T23:53:30.992Z,15.10
2017-09-10T23:55:58.491Z,15.10
2017-09-10T23:58:26.009Z,15.10
